sensor_id;sensor_type;location;lat;lon;timestamp;temperature;humidity
16515;DHT22;8370;52.556;7.970;2023-03-17T00:00:01;6.20;99.90
16515;DHT22;8370;52.556;7.970;2023-03-17T00:02:27;6.10;99.90
16515;DHT22;8370;52.556;7.970;2023-03-17T00:04:52;6.10;99.90
16515;DHT22;8370;52.556;7.970;2023-03-17T00:07:18;6.00;99.90
16515;DHT22;8370;52.556;7.970;2023-03-17T00:09:43;6.00;99.90
16515;DHT22;8370;52.556;7.970;2023-03-17T00:12:10;6.00;99.90
16515;DHT22;8370;52.556;7.970;2023-03-17T00:14:35;5.90;99.90
16515;DHT22;8370;52.556;7.970;2023-03-17T00:17:01;5.90;99.90
16515;DHT22;8370;52.556;7.970;2023-03-17T00:19:32;5.90;99.90
16515;DHT22;8370;52.556;7.970;2023-03-17T00:21:59;6.00;99.90
16515;DHT22;8370;52.556;7.970;2023-03-17T00:24:26;5.90;99.90
16515;DHT22;8370;52.556;7.970;2023-03-17T00:26:51;5.90;99.90
16515;DHT22;8370;52.556;7.970;2023-03-17T00:29:17;5.90;99.90
16515;DHT22;8370;52.556;7.970;2023-03-17T00:31:43;5.90;99.90
16515;DHT22;8370;52.556;7.970;2023-03-17T00:34:14;5.90;99.90
16515;DHT22;8370;52.556;7.970;2023-03-17T00:36:41;5.90;99.90
16515;DHT22;8370;52.556;7.970;2023-03-17T00:39:12;6.00;99.90
16515;DHT22;8370;52.556;7.970;2023-03-17T00:41:39;6.00;99.90
16515;DHT22;8370;52.556;7.970;2023-03-17T00:44:04;6.00;99.90
16515;DHT22;8370;52.556;7.970;2023-03-17T00:46:31;6.10;99.90
16515;DHT22;8370;52.556;7.970;2023-03-17T00:49:14;6.10;99.90
16515;DHT22;8370;52.556;7.970;2023-03-17T00:51:41;6.10;99.90
16515;DHT22;8370;52.556;7.970;2023-03-17T00:54:09;6.10;99.90
16515;DHT22;8370;52.556;7.970;2023-03-17T00:56:36;6.10;99.90
16515;DHT22;8370;52.556;7.970;2023-03-17T00:59:02;6.10;99.90
16515;DHT22;8370;52.556;7.970;2023-03-17T01:01:28;6.10;99.90
16515;DHT22;8370;52.556;7.970;2023-03-17T01:03:54;6.20;99.90
16515;DHT22;8370;52.556;7.970;2023-03-17T01:06:19;6.20;99.90
16515;DHT22;8370;52.556;7.970;2023-03-17T01:08:45;6.30;99.90
16515;DHT22;8370;52.556;7.970;2023-03-17T01:11:16;6.30;99.90
16515;DHT22;8370;52.556;7.970;2023-03-17T01:13:46;6.40;99.90
16515;DHT22;8370;52.556;7.970;2023-03-17T01:16:12;6.40;99.90
16515;DHT22;8370;52.556;7.970;2023-03-17T01:18:37;6.40;99.90
16515;DHT22;8370;52.556;7.970;2023-03-17T01:21:04;6.50;99.90
16515;DHT22;8370;52.556;7.970;2023-03-17T01:23:30;6.50;99.90
16515;DHT22;8370;52.556;7.970;2023-03-17T01:25:56;6.50;99.90
16515;DHT22;8370;52.556;7.970;2023-03-17T01:28:22;6.50;99.90
16515;DHT22;8370;52.556;7.970;2023-03-17T01:30:48;6.50;99.90
16515;DHT22;8370;52.556;7.970;2023-03-17T01:33:14;6.50;99.90
16515;DHT22;8370;52.556;7.970;2023-03-17T01:35:41;6.40;99.90
16515;DHT22;8370;52.556;7.970;2023-03-17T01:38:08;6.30;99.90
16515;DHT22;8370;52.556;7.970;2023-03-17T01:40:37;6.20;99.90
16515;DHT22;8370;52.556;7.970;2023-03-17T01:48:37;6.00;99.90
16515;DHT22;8370;52.556;7.970;2023-03-17T01:51:03;5.90;99.90
16515;DHT22;8370;52.556;7.970;2023-03-17T01:53:31;5.90;99.90
16515;DHT22;8370;52.556;7.970;2023-03-17T01:55:58;5.80;99.90
16515;DHT22;8370;52.556;7.970;2023-03-17T01:58:25;5.70;99.90
16515;DHT22;8370;52.556;7.970;2023-03-17T02:00:50;5.70;99.90
16515;DHT22;8370;52.556;7.970;2023-03-17T02:03:17;5.60;99.90
16515;DHT22;8370;52.556;7.970;2023-03-17T02:05:43;5.60;99.90
16515;DHT22;8370;52.556;7.970;2023-03-17T02:08:14;5.50;99.90
16515;DHT22;8370;52.556;7.970;2023-03-17T02:10:40;5.40;99.90
16515;DHT22;8370;52.556;7.970;2023-03-17T02:13:08;5.40;99.90
16515;DHT22;8370;52.556;7.970;2023-03-17T02:15:46;5.40;99.90
16515;DHT22;8370;52.556;7.970;2023-03-17T02:18:13;5.30;99.90
16515;DHT22;8370;52.556;7.970;2023-03-17T02:23:05;5.20;99.90
16515;DHT22;8370;52.556;7.970;2023-03-17T02:25:33;5.10;99.90
16515;DHT22;8370;52.556;7.970;2023-03-17T02:28:06;5.10;99.90
16515;DHT22;8370;52.556;7.970;2023-03-17T02:30:34;5.10;99.90
16515;DHT22;8370;52.556;7.970;2023-03-17T02:32:59;5.00;99.90
16515;DHT22;8370;52.556;7.970;2023-03-17T02:35:25;5.00;99.90
16515;DHT22;8370;52.556;7.970;2023-03-17T02:37:51;5.00;99.90
16515;DHT22;8370;52.556;7.970;2023-03-17T02:40:16;5.00;99.90
16515;DHT22;8370;52.556;7.970;2023-03-17T02:42:43;4.90;99.90
16515;DHT22;8370;52.556;7.970;2023-03-17T02:45:09;4.90;99.90
16515;DHT22;8370;52.556;7.970;2023-03-17T02:47:36;4.80;99.90
16515;DHT22;8370;52.556;7.970;2023-03-17T02:50:02;4.70;99.90
16515;DHT22;8370;52.556;7.970;2023-03-17T02:52:29;4.70;99.90
16515;DHT22;8370;52.556;7.970;2023-03-17T02:54:55;4.60;99.90
16515;DHT22;8370;52.556;7.970;2023-03-17T02:57:20;4.60;99.90
16515;DHT22;8370;52.556;7.970;2023-03-17T02:59:46;4.60;99.90
16515;DHT22;8370;52.556;7.970;2023-03-17T03:02:11;4.60;99.90
16515;DHT22;8370;52.556;7.970;2023-03-17T03:04:37;4.50;99.90
16515;DHT22;8370;52.556;7.970;2023-03-17T03:07:03;4.50;99.90
16515;DHT22;8370;52.556;7.970;2023-03-17T03:09:29;4.50;99.90
16515;DHT22;8370;52.556;7.970;2023-03-17T03:11:54;4.40;99.90
16515;DHT22;8370;52.556;7.970;2023-03-17T03:14:21;4.40;99.90
16515;DHT22;8370;52.556;7.970;2023-03-17T03:16:46;4.40;99.90
16515;DHT22;8370;52.556;7.970;2023-03-17T03:19:12;4.40;99.90
16515;DHT22;8370;52.556;7.970;2023-03-17T03:21:38;4.30;99.90
16515;DHT22;8370;52.556;7.970;2023-03-17T03:24:04;4.30;99.90
16515;DHT22;8370;52.556;7.970;2023-03-17T03:26:31;4.30;99.90
16515;DHT22;8370;52.556;7.970;2023-03-17T03:28:56;4.20;99.90
16515;DHT22;8370;52.556;7.970;2023-03-17T03:31:23;4.20;99.90
16515;DHT22;8370;52.556;7.970;2023-03-17T03:33:48;4.20;99.90
16515;DHT22;8370;52.556;7.970;2023-03-17T03:36:14;4.10;99.90
16515;DHT22;8370;52.556;7.970;2023-03-17T03:38:39;4.10;99.90
16515;DHT22;8370;52.556;7.970;2023-03-17T03:41:06;4.20;99.90
16515;DHT22;8370;52.556;7.970;2023-03-17T03:43:31;4.10;99.90
16515;DHT22;8370;52.556;7.970;2023-03-17T03:45:57;4.10;99.90
16515;DHT22;8370;52.556;7.970;2023-03-17T03:48:23;4.10;99.90
16515;DHT22;8370;52.556;7.970;2023-03-17T03:50:49;4.20;99.90
16515;DHT22;8370;52.556;7.970;2023-03-17T03:53:14;4.20;99.90
16515;DHT22;8370;52.556;7.970;2023-03-17T03:55:40;4.20;99.90
16515;DHT22;8370;52.556;7.970;2023-03-17T03:58:05;4.20;99.90
16515;DHT22;8370;52.556;7.970;2023-03-17T04:00:32;4.20;99.90
16515;DHT22;8370;52.556;7.970;2023-03-17T04:02:57;4.30;99.90
16515;DHT22;8370;52.556;7.970;2023-03-17T04:05:23;4.20;99.90
16515;DHT22;8370;52.556;7.970;2023-03-17T04:07:49;4.20;99.90
16515;DHT22;8370;52.556;7.970;2023-03-17T04:10:15;4.20;99.90
16515;DHT22;8370;52.556;7.970;2023-03-17T04:12:41;4.20;99.90
16515;DHT22;8370;52.556;7.970;2023-03-17T04:15:07;4.20;99.90
16515;DHT22;8370;52.556;7.970;2023-03-17T04:17:34;4.20;99.90
16515;DHT22;8370;52.556;7.970;2023-03-17T04:19:59;4.20;99.90
16515;DHT22;8370;52.556;7.970;2023-03-17T04:22:25;4.20;99.90
16515;DHT22;8370;52.556;7.970;2023-03-17T04:24:51;4.20;99.90
16515;DHT22;8370;52.556;7.970;2023-03-17T04:27:17;4.20;99.90
16515;DHT22;8370;52.556;7.970;2023-03-17T04:29:43;4.20;99.90
16515;DHT22;8370;52.556;7.970;2023-03-17T04:32:11;4.20;99.90
16515;DHT22;8370;52.556;7.970;2023-03-17T04:34:38;4.20;99.90
16515;DHT22;8370;52.556;7.970;2023-03-17T04:37:03;4.20;99.90
16515;DHT22;8370;52.556;7.970;2023-03-17T04:39:29;4.20;99.90
16515;DHT22;8370;52.556;7.970;2023-03-17T04:41:54;4.20;99.90
16515;DHT22;8370;52.556;7.970;2023-03-17T04:44:20;4.20;99.90
16515;DHT22;8370;52.556;7.970;2023-03-17T04:46:45;4.20;99.90
16515;DHT22;8370;52.556;7.970;2023-03-17T04:49:11;4.20;99.90
16515;DHT22;8370;52.556;7.970;2023-03-17T04:51:37;4.20;99.90
16515;DHT22;8370;52.556;7.970;2023-03-17T04:54:03;4.20;99.90
16515;DHT22;8370;52.556;7.970;2023-03-17T04:56:28;4.30;99.90
16515;DHT22;8370;52.556;7.970;2023-03-17T04:58:54;4.30;99.90
16515;DHT22;8370;52.556;7.970;2023-03-17T05:01:19;4.30;99.90
16515;DHT22;8370;52.556;7.970;2023-03-17T05:03:46;4.30;99.90
16515;DHT22;8370;52.556;7.970;2023-03-17T05:06:11;4.30;99.90
16515;DHT22;8370;52.556;7.970;2023-03-17T05:08:37;4.40;99.90
16515;DHT22;8370;52.556;7.970;2023-03-17T05:11:02;4.40;99.90
16515;DHT22;8370;52.556;7.970;2023-03-17T05:13:28;4.40;99.90
16515;DHT22;8370;52.556;7.970;2023-03-17T05:15:54;4.40;99.90
16515;DHT22;8370;52.556;7.970;2023-03-17T05:18:24;4.40;99.90
16515;DHT22;8370;52.556;7.970;2023-03-17T05:20:50;4.40;99.90
16515;DHT22;8370;52.556;7.970;2023-03-17T05:23:15;4.40;99.90
16515;DHT22;8370;52.556;7.970;2023-03-17T05:25:41;4.40;99.90
16515;DHT22;8370;52.556;7.970;2023-03-17T05:28:07;4.40;99.90
16515;DHT22;8370;52.556;7.970;2023-03-17T05:30:33;4.40;99.90
16515;DHT22;8370;52.556;7.970;2023-03-17T05:33:01;4.40;99.90
16515;DHT22;8370;52.556;7.970;2023-03-17T05:35:26;4.40;99.90
16515;DHT22;8370;52.556;7.970;2023-03-17T05:37:52;4.40;99.90
16515;DHT22;8370;52.556;7.970;2023-03-17T05:40:17;4.30;99.90
16515;DHT22;8370;52.556;7.970;2023-03-17T05:42:43;4.30;99.90
16515;DHT22;8370;52.556;7.970;2023-03-17T05:45:09;4.30;99.90
16515;DHT22;8370;52.556;7.970;2023-03-17T05:47:35;4.30;99.90
16515;DHT22;8370;52.556;7.970;2023-03-17T05:50:01;4.30;99.90
16515;DHT22;8370;52.556;7.970;2023-03-17T05:52:27;4.20;99.90
16515;DHT22;8370;52.556;7.970;2023-03-17T05:54:53;4.20;99.90
16515;DHT22;8370;52.556;7.970;2023-03-17T05:57:19;4.20;99.90
16515;DHT22;8370;52.556;7.970;2023-03-17T05:59:45;4.20;99.90
16515;DHT22;8370;52.556;7.970;2023-03-17T06:02:11;4.10;99.90
16515;DHT22;8370;52.556;7.970;2023-03-17T06:04:38;4.10;99.90
16515;DHT22;8370;52.556;7.970;2023-03-17T06:07:04;4.10;99.90
16515;DHT22;8370;52.556;7.970;2023-03-17T06:09:31;4.10;99.90
16515;DHT22;8370;52.556;7.970;2023-03-17T06:11:56;4.20;99.90
16515;DHT22;8370;52.556;7.970;2023-03-17T06:14:22;4.20;99.90
16515;DHT22;8370;52.556;7.970;2023-03-17T06:16:48;4.10;99.90
16515;DHT22;8370;52.556;7.970;2023-03-17T06:19:13;4.20;99.90
16515;DHT22;8370;52.556;7.970;2023-03-17T06:21:39;4.20;99.90
16515;DHT22;8370;52.556;7.970;2023-03-17T06:24:05;4.20;99.90
16515;DHT22;8370;52.556;7.970;2023-03-17T06:26:31;4.30;99.90
16515;DHT22;8370;52.556;7.970;2023-03-17T06:28:57;4.30;99.90
16515;DHT22;8370;52.556;7.970;2023-03-17T06:31:22;4.30;99.90
16515;DHT22;8370;52.556;7.970;2023-03-17T06:33:48;4.30;99.90
16515;DHT22;8370;52.556;7.970;2023-03-17T06:36:14;4.40;99.90
16515;DHT22;8370;52.556;7.970;2023-03-17T06:38:39;4.40;99.90
16515;DHT22;8370;52.556;7.970;2023-03-17T06:41:05;4.40;99.90
16515;DHT22;8370;52.556;7.970;2023-03-17T06:43:31;4.50;99.90
16515;DHT22;8370;52.556;7.970;2023-03-17T06:45:57;4.50;99.90
16515;DHT22;8370;52.556;7.970;2023-03-17T06:48:22;4.70;99.90
16515;DHT22;8370;52.556;7.970;2023-03-17T06:50:48;4.80;99.90
16515;DHT22;8370;52.556;7.970;2023-03-17T06:53:14;4.90;99.90
16515;DHT22;8370;52.556;7.970;2023-03-17T06:55:40;5.00;99.90
16515;DHT22;8370;52.556;7.970;2023-03-17T06:58:06;5.10;99.90
16515;DHT22;8370;52.556;7.970;2023-03-17T07:00:33;5.10;99.90
16515;DHT22;8370;52.556;7.970;2023-03-17T07:02:59;5.20;99.90
16515;DHT22;8370;52.556;7.970;2023-03-17T07:05:24;5.30;99.90
16515;DHT22;8370;52.556;7.970;2023-03-17T07:07:50;5.40;99.90
16515;DHT22;8370;52.556;7.970;2023-03-17T07:10:16;5.60;99.90
16515;DHT22;8370;52.556;7.970;2023-03-17T07:12:42;5.70;99.90
16515;DHT22;8370;52.556;7.970;2023-03-17T07:15:08;5.80;99.90
16515;DHT22;8370;52.556;7.970;2023-03-17T07:17:34;6.00;99.90
16515;DHT22;8370;52.556;7.970;2023-03-17T07:20:00;6.10;99.90
16515;DHT22;8370;52.556;7.970;2023-03-17T07:22:25;6.30;99.90
16515;DHT22;8370;52.556;7.970;2023-03-17T07:24:51;6.50;99.90
16515;DHT22;8370;52.556;7.970;2023-03-17T07:27:17;6.60;99.90
16515;DHT22;8370;52.556;7.970;2023-03-17T07:29:43;6.70;99.90
16515;DHT22;8370;52.556;7.970;2023-03-17T07:32:08;6.90;99.90
16515;DHT22;8370;52.556;7.970;2023-03-17T07:34:34;7.10;99.90
16515;DHT22;8370;52.556;7.970;2023-03-17T07:37:01;7.30;99.90
16515;DHT22;8370;52.556;7.970;2023-03-17T07:39:26;7.40;99.90
16515;DHT22;8370;52.556;7.970;2023-03-17T07:41:52;7.40;99.90
16515;DHT22;8370;52.556;7.970;2023-03-17T07:44:20;7.50;99.90
16515;DHT22;8370;52.556;7.970;2023-03-17T07:46:47;7.60;99.90
16515;DHT22;8370;52.556;7.970;2023-03-17T07:49:12;7.60;99.90
16515;DHT22;8370;52.556;7.970;2023-03-17T07:51:38;7.70;99.90
16515;DHT22;8370;52.556;7.970;2023-03-17T07:54:10;7.80;99.90
16515;DHT22;8370;52.556;7.970;2023-03-17T07:56:37;8.00;99.90
16515;DHT22;8370;52.556;7.970;2023-03-17T07:59:03;8.10;99.90
16515;DHT22;8370;52.556;7.970;2023-03-17T08:01:28;8.30;99.90
16515;DHT22;8370;52.556;7.970;2023-03-17T08:03:55;8.40;99.90
16515;DHT22;8370;52.556;7.970;2023-03-17T08:06:21;8.60;99.90
16515;DHT22;8370;52.556;7.970;2023-03-17T08:08:50;8.80;99.90
16515;DHT22;8370;52.556;7.970;2023-03-17T08:11:16;9.10;99.90
16515;DHT22;8370;52.556;7.970;2023-03-17T08:13:42;9.40;99.90
16515;DHT22;8370;52.556;7.970;2023-03-17T08:16:08;9.60;99.90
16515;DHT22;8370;52.556;7.970;2023-03-17T08:18:33;9.80;99.90
16515;DHT22;8370;52.556;7.970;2023-03-17T08:20:59;10.00;99.90
16515;DHT22;8370;52.556;7.970;2023-03-17T08:23:24;10.20;99.90
16515;DHT22;8370;52.556;7.970;2023-03-17T08:25:59;10.30;99.90
16515;DHT22;8370;52.556;7.970;2023-03-17T08:28:24;10.50;99.90
16515;DHT22;8370;52.556;7.970;2023-03-17T08:30:50;10.60;99.90
16515;DHT22;8370;52.556;7.970;2023-03-17T08:33:15;10.70;99.90
16515;DHT22;8370;52.556;7.970;2023-03-17T08:35:41;10.90;99.90
16515;DHT22;8370;52.556;7.970;2023-03-17T08:38:07;10.90;99.90
16515;DHT22;8370;52.556;7.970;2023-03-17T08:40:33;11.00;99.90
16515;DHT22;8370;52.556;7.970;2023-03-17T08:42:59;11.10;99.90
16515;DHT22;8370;52.556;7.970;2023-03-17T08:45:25;11.20;99.90
16515;DHT22;8370;52.556;7.970;2023-03-17T08:47:51;11.30;99.90
16515;DHT22;8370;52.556;7.970;2023-03-17T08:50:19;11.50;99.90
16515;DHT22;8370;52.556;7.970;2023-03-17T08:52:45;11.50;99.90
16515;DHT22;8370;52.556;7.970;2023-03-17T08:55:13;11.70;99.90
16515;DHT22;8370;52.556;7.970;2023-03-17T08:57:39;11.70;99.90
16515;DHT22;8370;52.556;7.970;2023-03-17T09:00:05;11.90;99.90
16515;DHT22;8370;52.556;7.970;2023-03-17T09:02:36;12.00;99.90
16515;DHT22;8370;52.556;7.970;2023-03-17T09:05:02;12.10;99.90
16515;DHT22;8370;52.556;7.970;2023-03-17T09:07:28;12.30;99.90
16515;DHT22;8370;52.556;7.970;2023-03-17T09:09:53;12.40;99.90
16515;DHT22;8370;52.556;7.970;2023-03-17T09:12:19;12.50;99.90
16515;DHT22;8370;52.556;7.970;2023-03-17T09:14:45;12.70;99.90
16515;DHT22;8370;52.556;7.970;2023-03-17T09:17:11;12.80;99.90
16515;DHT22;8370;52.556;7.970;2023-03-17T09:19:38;12.90;99.90
16515;DHT22;8370;52.556;7.970;2023-03-17T09:22:04;13.00;99.90
16515;DHT22;8370;52.556;7.970;2023-03-17T09:24:30;13.00;99.90
16515;DHT22;8370;52.556;7.970;2023-03-17T09:26:55;13.20;99.90
16515;DHT22;8370;52.556;7.970;2023-03-17T09:29:24;13.30;99.90
16515;DHT22;8370;52.556;7.970;2023-03-17T09:31:50;13.40;99.90
16515;DHT22;8370;52.556;7.970;2023-03-17T09:34:16;13.60;99.90
16515;DHT22;8370;52.556;7.970;2023-03-17T09:36:42;13.70;99.90
16515;DHT22;8370;52.556;7.970;2023-03-17T09:39:08;13.70;99.90
16515;DHT22;8370;52.556;7.970;2023-03-17T09:41:44;13.80;99.90
16515;DHT22;8370;52.556;7.970;2023-03-17T09:44:26;13.90;99.90
16515;DHT22;8370;52.556;7.970;2023-03-17T09:47:24;14.00;99.90
16515;DHT22;8370;52.556;7.970;2023-03-17T09:50:00;14.20;99.90
16515;DHT22;8370;52.556;7.970;2023-03-17T09:52:28;14.20;99.90
16515;DHT22;8370;52.556;7.970;2023-03-17T09:54:55;14.30;99.90
16515;DHT22;8370;52.556;7.970;2023-03-17T09:57:29;14.40;99.90
16515;DHT22;8370;52.556;7.970;2023-03-17T10:00:15;14.60;99.90
16515;DHT22;8370;52.556;7.970;2023-03-17T10:02:42;14.70;99.90
16515;DHT22;8370;52.556;7.970;2023-03-17T10:05:29;14.80;99.90
16515;DHT22;8370;52.556;7.970;2023-03-17T10:08:11;14.90;99.90
16515;DHT22;8370;52.556;7.970;2023-03-17T10:10:48;15.00;99.90
16515;DHT22;8370;52.556;7.970;2023-03-17T10:16:11;15.10;99.90
16515;DHT22;8370;52.556;7.970;2023-03-17T10:19:02;15.10;99.90
16515;DHT22;8370;52.556;7.970;2023-03-17T10:21:32;15.10;99.90
16515;DHT22;8370;52.556;7.970;2023-03-17T10:23:59;15.20;99.90
16515;DHT22;8370;52.556;7.970;2023-03-17T10:26:33;15.20;99.90
16515;DHT22;8370;52.556;7.970;2023-03-17T10:29:07;15.30;99.90
16515;DHT22;8370;52.556;7.970;2023-03-17T10:31:35;15.40;99.90
16515;DHT22;8370;52.556;7.970;2023-03-17T10:34:14;15.40;99.90
16515;DHT22;8370;52.556;7.970;2023-03-17T10:36:47;15.50;99.90
16515;DHT22;8370;52.556;7.970;2023-03-17T10:39:17;15.60;99.90
16515;DHT22;8370;52.556;7.970;2023-03-17T10:42:06;15.70;99.90
16515;DHT22;8370;52.556;7.970;2023-03-17T10:44:47;15.80;99.90
16515;DHT22;8370;52.556;7.970;2023-03-17T10:49:51;15.90;99.90
16515;DHT22;8370;52.556;7.970;2023-03-17T10:52:23;15.90;99.90
16515;DHT22;8370;52.556;7.970;2023-03-17T10:54:49;16.00;99.90
16515;DHT22;8370;52.556;7.970;2023-03-17T10:57:16;16.10;99.90
16515;DHT22;8370;52.556;7.970;2023-03-17T10:59:48;16.20;99.90
16515;DHT22;8370;52.556;7.970;2023-03-17T11:02:26;16.10;99.90
16515;DHT22;8370;52.556;7.970;2023-03-17T11:04:57;16.20;99.90
16515;DHT22;8370;52.556;7.970;2023-03-17T11:07:36;16.30;99.90
16515;DHT22;8370;52.556;7.970;2023-03-17T11:10:11;16.40;99.90
16515;DHT22;8370;52.556;7.970;2023-03-17T11:12:40;16.50;99.90
16515;DHT22;8370;52.556;7.970;2023-03-17T11:15:10;16.60;99.90
16515;DHT22;8370;52.556;7.970;2023-03-17T11:17:44;16.80;99.90
16515;DHT22;8370;52.556;7.970;2023-03-17T11:23:16;17.10;99.90
16515;DHT22;8370;52.556;7.970;2023-03-17T11:25:45;17.30;99.90
16515;DHT22;8370;52.556;7.970;2023-03-17T11:28:18;17.80;99.90
16515;DHT22;8370;52.556;7.970;2023-03-17T11:30:53;18.50;99.90
16515;DHT22;8370;52.556;7.970;2023-03-17T11:33:55;19.90;99.90
16515;DHT22;8370;52.556;7.970;2023-03-17T11:36:50;21.50;99.90
16515;DHT22;8370;52.556;7.970;2023-03-17T11:39:25;22.40;99.90
16515;DHT22;8370;52.556;7.970;2023-03-17T11:42:27;23.40;96.40
16515;DHT22;8370;52.556;7.970;2023-03-17T11:50:39;24.40;91.20
16515;DHT22;8370;52.556;7.970;2023-03-17T11:56:13;23.60;90.50
16515;DHT22;8370;52.556;7.970;2023-03-17T11:58:47;23.10;91.20
16515;DHT22;8370;52.556;7.970;2023-03-17T12:01:53;23.20;91.10
16515;DHT22;8370;52.556;7.970;2023-03-17T12:04:40;23.30;91.00
16515;DHT22;8370;52.556;7.970;2023-03-17T12:07:25;23.40;90.10
16515;DHT22;8370;52.556;7.970;2023-03-17T12:10:06;23.10;90.40
16515;DHT22;8370;52.556;7.970;2023-03-17T12:12:41;22.90;90.50
16515;DHT22;8370;52.556;7.970;2023-03-17T12:15:15;22.70;90.80
16515;DHT22;8370;52.556;7.970;2023-03-17T12:18:03;21.80;90.90
16515;DHT22;8370;52.556;7.970;2023-03-17T12:20:56;21.00;91.60
16515;DHT22;8370;52.556;7.970;2023-03-17T12:26:17;20.20;93.20
16515;DHT22;8370;52.556;7.970;2023-03-17T12:28:48;20.10;93.90
16515;DHT22;8370;52.556;7.970;2023-03-17T12:31:20;20.10;94.10
16515;DHT22;8370;52.556;7.970;2023-03-17T12:33:48;20.20;93.90
16515;DHT22;8370;52.556;7.970;2023-03-17T12:36:18;20.30;93.90
16515;DHT22;8370;52.556;7.970;2023-03-17T12:41:32;20.40;93.70
16515;DHT22;8370;52.556;7.970;2023-03-17T12:47:12;20.90;93.90
16515;DHT22;8370;52.556;7.970;2023-03-17T12:55:24;20.60;93.90
16515;DHT22;8370;52.556;7.970;2023-03-17T12:58:05;20.20;94.30
16515;DHT22;8370;52.556;7.970;2023-03-17T13:00:48;20.10;94.80
16515;DHT22;8370;52.556;7.970;2023-03-17T13:03:26;20.10;94.80
16515;DHT22;8370;52.556;7.970;2023-03-17T13:06:01;20.10;94.90
16515;DHT22;8370;52.556;7.970;2023-03-17T13:08:33;20.00;94.70
16515;DHT22;8370;52.556;7.970;2023-03-17T13:14:40;20.30;95.70
16515;DHT22;8370;52.556;7.970;2023-03-17T13:23:01;19.90;95.90
16515;DHT22;8370;52.556;7.970;2023-03-17T13:25:55;19.90;95.70
16515;DHT22;8370;52.556;7.970;2023-03-17T13:31:34;19.90;96.10
16515;DHT22;8370;52.556;7.970;2023-03-17T13:34:14;19.80;96.20
16515;DHT22;8370;52.556;7.970;2023-03-17T13:45:42;18.30;98.50
16515;DHT22;8370;52.556;7.970;2023-03-17T13:48:24;18.00;99.80
16515;DHT22;8370;52.556;7.970;2023-03-17T13:51:13;17.80;99.90
16515;DHT22;8370;52.556;7.970;2023-03-17T13:53:44;17.80;99.90
16515;DHT22;8370;52.556;7.970;2023-03-17T14:01:49;18.10;99.90
16515;DHT22;8370;52.556;7.970;2023-03-17T14:04:44;18.20;99.90
16515;DHT22;8370;52.556;7.970;2023-03-17T14:07:15;18.40;99.90
16515;DHT22;8370;52.556;7.970;2023-03-17T14:09:43;18.50;99.90
16515;DHT22;8370;52.556;7.970;2023-03-17T14:12:34;18.60;99.90
16515;DHT22;8370;52.556;7.970;2023-03-17T14:15:28;18.80;99.90
16515;DHT22;8370;52.556;7.970;2023-03-17T14:18:08;19.00;99.90
16515;DHT22;8370;52.556;7.970;2023-03-17T14:20:38;19.20;99.90
16515;DHT22;8370;52.556;7.970;2023-03-17T14:23:03;19.50;99.90
16515;DHT22;8370;52.556;7.970;2023-03-17T14:25:33;19.60;99.90
16515;DHT22;8370;52.556;7.970;2023-03-17T14:27:59;19.70;99.80
16515;DHT22;8370;52.556;7.970;2023-03-17T14:30:27;19.80;98.90
16515;DHT22;8370;52.556;7.970;2023-03-17T14:33:06;19.80;99.10
16515;DHT22;8370;52.556;7.970;2023-03-17T14:35:39;19.80;98.30
16515;DHT22;8370;52.556;7.970;2023-03-17T14:40:41;19.90;98.10
16515;DHT22;8370;52.556;7.970;2023-03-17T14:43:07;20.00;97.50
16515;DHT22;8370;52.556;7.970;2023-03-17T14:45:49;20.10;96.30
16515;DHT22;8370;52.556;7.970;2023-03-17T14:48:29;20.00;97.00
16515;DHT22;8370;52.556;7.970;2023-03-17T14:50:57;19.80;97.40
16515;DHT22;8370;52.556;7.970;2023-03-17T14:53:30;19.70;97.40
16515;DHT22;8370;52.556;7.970;2023-03-17T14:55:57;19.50;97.80
16515;DHT22;8370;52.556;7.970;2023-03-17T14:58:27;19.20;98.60
16515;DHT22;8370;52.556;7.970;2023-03-17T15:01:00;19.00;98.80
16515;DHT22;8370;52.556;7.970;2023-03-17T15:03:28;18.80;99.20
16515;DHT22;8370;52.556;7.970;2023-03-17T15:06:25;18.80;99.50
16515;DHT22;8370;52.556;7.970;2023-03-17T15:08:53;19.00;99.20
16515;DHT22;8370;52.556;7.970;2023-03-17T15:11:27;19.20;98.60
16515;DHT22;8370;52.556;7.970;2023-03-17T15:14:16;19.20;98.40
16515;DHT22;8370;52.556;7.970;2023-03-17T15:16:51;19.20;98.70
16515;DHT22;8370;52.556;7.970;2023-03-17T15:19:20;19.10;99.20
16515;DHT22;8370;52.556;7.970;2023-03-17T15:21:47;19.00;98.80
16515;DHT22;8370;52.556;7.970;2023-03-17T15:24:36;18.90;99.10
16515;DHT22;8370;52.556;7.970;2023-03-17T15:27:06;18.80;99.90
16515;DHT22;8370;52.556;7.970;2023-03-17T15:29:37;18.70;99.90
16515;DHT22;8370;52.556;7.970;2023-03-17T15:32:10;18.60;99.90
16515;DHT22;8370;52.556;7.970;2023-03-17T15:34:36;18.60;99.90
16515;DHT22;8370;52.556;7.970;2023-03-17T15:37:02;18.60;99.90
16515;DHT22;8370;52.556;7.970;2023-03-17T15:39:27;18.60;99.90
16515;DHT22;8370;52.556;7.970;2023-03-17T15:41:52;18.60;99.90
16515;DHT22;8370;52.556;7.970;2023-03-17T15:44:18;18.50;99.90
16515;DHT22;8370;52.556;7.970;2023-03-17T15:46:43;18.40;99.90
16515;DHT22;8370;52.556;7.970;2023-03-17T15:49:10;18.40;99.90
16515;DHT22;8370;52.556;7.970;2023-03-17T15:51:36;18.30;99.90
16515;DHT22;8370;52.556;7.970;2023-03-17T15:54:02;18.30;99.90
16515;DHT22;8370;52.556;7.970;2023-03-17T15:56:27;18.20;99.90
16515;DHT22;8370;52.556;7.970;2023-03-17T15:58:53;18.20;99.90
16515;DHT22;8370;52.556;7.970;2023-03-17T16:01:19;18.00;99.90
16515;DHT22;8370;52.556;7.970;2023-03-17T16:03:45;18.00;99.90
16515;DHT22;8370;52.556;7.970;2023-03-17T16:06:18;18.00;99.90
16515;DHT22;8370;52.556;7.970;2023-03-17T16:08:45;17.90;99.90
16515;DHT22;8370;52.556;7.970;2023-03-17T16:11:30;17.80;99.90
16515;DHT22;8370;52.556;7.970;2023-03-17T16:13:56;17.60;99.90
16515;DHT22;8370;52.556;7.970;2023-03-17T16:16:39;17.40;99.90
16515;DHT22;8370;52.556;7.970;2023-03-17T16:19:17;17.30;99.90
16515;DHT22;8370;52.556;7.970;2023-03-17T16:21:44;17.10;99.90
16515;DHT22;8370;52.556;7.970;2023-03-17T16:24:19;17.00;99.90
16515;DHT22;8370;52.556;7.970;2023-03-17T16:26:46;16.90;99.90
16515;DHT22;8370;52.556;7.970;2023-03-17T16:29:12;16.80;99.90
16515;DHT22;8370;52.556;7.970;2023-03-17T16:31:39;16.60;99.90
16515;DHT22;8370;52.556;7.970;2023-03-17T16:34:16;16.50;99.90
16515;DHT22;8370;52.556;7.970;2023-03-17T16:36:42;16.40;99.90
16515;DHT22;8370;52.556;7.970;2023-03-17T16:39:16;16.20;99.90
16515;DHT22;8370;52.556;7.970;2023-03-17T16:41:47;16.10;99.90
16515;DHT22;8370;52.556;7.970;2023-03-17T16:44:14;16.00;99.90
16515;DHT22;8370;52.556;7.970;2023-03-17T16:46:40;15.90;99.90
16515;DHT22;8370;52.556;7.970;2023-03-17T16:49:11;15.70;99.90
16515;DHT22;8370;52.556;7.970;2023-03-17T16:51:37;15.60;99.90
16515;DHT22;8370;52.556;7.970;2023-03-17T16:54:03;15.50;99.90
16515;DHT22;8370;52.556;7.970;2023-03-17T16:56:28;15.40;99.90
16515;DHT22;8370;52.556;7.970;2023-03-17T16:58:55;15.30;99.90
16515;DHT22;8370;52.556;7.970;2023-03-17T17:01:24;15.20;99.90
16515;DHT22;8370;52.556;7.970;2023-03-17T17:03:50;15.10;99.90
16515;DHT22;8370;52.556;7.970;2023-03-17T17:06:17;15.00;99.90
16515;DHT22;8370;52.556;7.970;2023-03-17T17:08:44;14.90;99.90
16515;DHT22;8370;52.556;7.970;2023-03-17T17:11:11;14.80;99.90
16515;DHT22;8370;52.556;7.970;2023-03-17T17:13:40;14.70;99.90
16515;DHT22;8370;52.556;7.970;2023-03-17T17:16:20;14.60;99.90